Terminal Aerodrome Forecast
Issued by NWS

Home | Current Version | Previous Version | Text Only | Print | Product List | Glossary On
Versions: 1 2 3 4 5 6 7 8 9 10 11 12 13
000
FTUS43 KJKL 092300
TAFSME
TAF
KSME 092323Z 1000/1024 30005KT P6SM FEW050
     FM100600 00000KT 3SM BR FEW002
     FM101300 VRB05KT P6SM SCT045=

USA.gov is the U.S. government's official web portal to all federal, state and local government web resources and services.